Time;durP1;ratioP1;P1;durP2;ratioP2;P2;SDS_P1;SDS_P2;PMS_P1;PMS_P2;Temp;Humidity;BMP_temperature;BMP_pressure;BME280_temperature;BME280_humidity;BME280_pressure;Samples;Min_cycle;Max_cycle;Signal;HPM_P1;HPM_P2
2023/02/12 00:01:13;;;;;;;9.23;3.08;;;;;;;;;;5014094;28;20194;-61
2023/02/12 00:03:39;;;;;;;12.65;3.38;;;;;;;;;;5015195;28;20163;-61
2023/02/12 00:06:06;;;;;;;10.98;3.33;;;;;;;;;;5014673;28;20567;-60
2023/02/12 00:08:32;;;;;;;11.70;3.35;;;;;;;;;;5014373;28;20259;-59
2023/02/12 00:10:58;;;;;;;11.43;3.03;;;;;;;;;;5014217;28;20170;-59
2023/02/12 00:13:23;;;;;;;10.73;3.22;;;;;;;;;;5013795;28;20170;-62
2023/02/12 00:15:50;;;;;;;12.55;3.50;;;;;;;;;;5013647;28;20231;-60
2023/02/12 00:18:16;;;;;;;8.80;2.95;;;;;;;;;;5013746;28;20170;-60
2023/02/12 00:20:42;;;;;;;14.02;3.47;;;;;;;;;;5013438;28;20177;-60
2023/02/12 00:23:08;;;;;;;10.60;3.30;;;;;;;;;;5013285;28;20174;-61
2023/02/12 00:25:35;;;;;;;12.73;4.30;;;;;;;;;;5013456;28;20171;-58
2023/02/12 00:28:02;;;;;;;9.38;3.53;;;;;;;;;;5013602;28;20198;-63
2023/02/12 00:30:28;;;;;;;12.10;3.20;;;;;;;;;;5013646;28;20508;-62
2023/02/12 00:32:53;;;;;;;13.73;3.72;;;;;;;;;;5013343;28;20167;-62
2023/02/12 00:35:19;;;;;;;5.88;3.00;;;;;;;;;;5013066;28;20514;-63
2023/02/12 00:37:45;;;;;;;9.52;3.33;;;;;;;;;;5013260;28;20495;-60
2023/02/12 00:40:11;;;;;;;12.80;4.07;;;;;;;;;;5017907;28;20487;-62
2023/02/12 00:42:37;;;;;;;8.85;3.47;;;;;;;;;;5023297;28;20250;-61
2023/02/12 00:45:03;;;;;;;11.02;3.70;;;;;;;;;;5021350;28;20589;-62
2023/02/12 00:47:29;;;;;;;13.85;4.45;;;;;;;;;;5017169;28;20190;-63
2023/02/12 00:49:55;;;;;;;9.00;3.70;;;;;;;;;;5013267;28;20182;-63
2023/02/12 00:52:21;;;;;;;9.30;4.05;;;;;;;;;;5012170;28;20170;-60
2023/02/12 00:54:47;;;;;;;9.85;3.70;;;;;;;;;;5012948;28;20174;-63
2023/02/12 00:57:13;;;;;;;12.70;4.32;;;;;;;;;;5012881;28;20184;-63
2023/02/12 00:59:41;;;;;;;10.55;3.67;;;;;;;;;;5012659;28;20231;-63
2023/02/12 01:02:07;;;;;;;12.73;3.80;;;;;;;;;;5012451;28;20185;-63
2023/02/12 01:04:33;;;;;;;9.77;4.03;;;;;;;;;;5013367;28;20172;-62
2023/02/12 01:06:58;;;;;;;8.55;3.42;;;;;;;;;;5012703;28;20647;-63
2023/02/12 01:09:25;;;;;;;8.88;3.55;;;;;;;;;;5012832;28;20225;-61
2023/02/12 01:11:50;;;;;;;10.90;3.80;;;;;;;;;;5012715;28;20166;-63
2023/02/12 01:14:16;;;;;;;13.75;3.80;;;;;;;;;;5012842;28;20658;-63
2023/02/12 01:16:42;;;;;;;10.95;3.55;;;;;;;;;;5012381;28;20657;-63
2023/02/12 01:19:10;;;;;;;11.05;3.50;;;;;;;;;;5012677;28;20166;-63
2023/02/12 01:21:36;;;;;;;7.45;3.15;;;;;;;;;;5012611;28;20208;-62
2023/02/12 01:24:02;;;;;;;9.07;4.20;;;;;;;;;;5012358;28;20612;-63
2023/02/12 01:26:29;;;;;;;13.60;3.90;;;;;;;;;;5012590;28;20500;-63
2023/02/12 01:28:56;;;;;;;7.65;2.88;;;;;;;;;;5012404;28;20201;-62
2023/02/12 01:31:24;;;;;;;8.25;3.45;;;;;;;;;;5012648;28;20173;-62
2023/02/12 01:33:50;;;;;;;11.43;2.90;;;;;;;;;;5012614;28;20166;-63
2023/02/12 01:36:16;;;;;;;11.23;3.20;;;;;;;;;;5012380;28;20174;-63
2023/02/12 01:38:42;;;;;;;12.23;4.03;;;;;;;;;;5012442;28;20235;-63
2023/02/12 01:41:10;;;;;;;9.07;3.60;;;;;;;;;;5012128;28;20593;-62
2023/02/12 01:43:36;;;;;;;7.65;3.40;;;;;;;;;;5012061;28;20486;-62
2023/02/12 01:46:02;;;;;;;9.80;3.00;;;;;;;;;;5012026;28;20626;-63
2023/02/12 01:48:32;;;;;;;9.70;3.30;;;;;;;;;;5012145;28;20226;-62
2023/02/12 01:50:58;;;;;;;9.60;3.13;;;;;;;;;;5012249;28;20170;-62
2023/02/12 01:53:27;;;;;;;9.40;4.13;;;;;;;;;;5012159;28;20174;-60
2023/02/12 01:55:55;;;;;;;10.07;3.15;;;;;;;;;;5012324;28;20166;-63
2023/02/12 01:58:22;;;;;;;8.95;3.35;;;;;;;;;;5012212;28;20181;-63
2023/02/12 02:00:48;;;;;;;9.00;3.53;;;;;;;;;;5012398;28;20612;-62
2023/02/12 02:03:14;;;;;;;10.15;3.50;;;;;;;;;;5014264;28;20167;-60
2023/02/12 02:05:46;;;;;;;9.77;3.25;;;;;;;;;;5015654;28;20581;-61
2023/02/12 02:08:13;;;;;;;7.78;3.50;;;;;;;;;;5015562;28;20225;-61
2023/02/12 02:10:39;;;;;;;12.15;3.65;;;;;;;;;;5015831;28;20167;-61
2023/02/12 02:15:51;;;;;;;11.35;3.67;;;;;;;;;;5015609;28;20178;-61
2023/02/12 02:18:17;;;;;;;12.05;4.20;;;;;;;;;;5015671;28;20175;-60
2023/02/12 02:20:43;;;;;;;10.73;4.25;;;;;;;;;;5015489;28;20320;-62
2023/02/12 02:23:21;;;;;;;8.10;3.30;;;;;;;;;;5015499;28;20163;-60
2023/02/12 02:26:06;;;;;;;13.65;3.92;;;;;;;;;;5015203;28;20183;-61
2023/02/12 02:29:04;;;;;;;13.02;4.43;;;;;;;;;;5015317;28;20224;-62
2023/02/12 02:31:35;;;;;;;13.38;4.88;;;;;;;;;;5096782;28;20576;-61
2023/02/12 02:34:08;;;;;;;11.35;4.63;;;;;;;;;;5097016;28;20582;-61
2023/02/12 02:36:43;;;;;;;11.23;4.60;;;;;;;;;;5096517;28;20499;-61
2023/02/12 02:39:27;;;;;;;12.10;4.95;;;;;;;;;;5096894;28;20167;-63
2023/02/12 02:42:12;;;;;;;14.70;5.15;;;;;;;;;;5096544;28;20171;-63
2023/02/12 02:44:42;;;;;;;11.38;5.07;;;;;;;;;;5096354;28;20551;-63
2023/02/12 02:47:09;;;;;;;14.20;5.20;;;;;;;;;;5096243;28;20238;-59
2023/02/12 02:49:54;;;;;;;14.85;5.35;;;;;;;;;;5097021;28;20168;-62
2023/02/12 02:52:24;;;;;;;12.98;5.38;;;;;;;;;;5096544;28;20494;-63
2023/02/12 02:54:52;;;;;;;13.48;5.70;;;;;;;;;;5096433;28;20713;-61
2023/02/12 02:57:24;;;;;;;10.45;5.65;;;;;;;;;;5096151;28;20620;-62
2023/02/12 02:59:54;;;;;;;13.88;6.00;;;;;;;;;;5096200;28;20248;-62
2023/02/12 03:02:27;;;;;;;13.38;5.20;;;;;;;;;;5096291;28;20191;-62
2023/02/12 03:04:57;;;;;;;13.52;5.90;;;;;;;;;;5095995;28;20610;-63
2023/02/12 03:07:35;;;;;;;18.45;5.90;;;;;;;;;;5043244;28;20581;-63
2023/02/12 03:10:05;;;;;;;13.50;5.55;;;;;;;;;;5014582;28;20177;-63
2023/02/12 03:12:34;;;;;;;13.65;6.15;;;;;;;;;;5014318;28;20186;-63
2023/02/12 03:15:07;;;;;;;12.10;5.43;;;;;;;;;;5013680;28;20163;-62
2023/02/12 03:17:37;;;;;;;15.68;6.13;;;;;;;;;;5014443;28;20163;-63
2023/02/12 03:20:05;;;;;;;15.40;6.10;;;;;;;;;;5014372;28;20738;-62
2023/02/12 03:22:33;;;;;;;17.90;6.85;;;;;;;;;;5014245;28;20175;-62
2023/02/12 03:25:13;;;;;;;13.27;6.70;;;;;;;;;;5014251;28;20181;-61
2023/02/12 03:27:49;;;;;;;14.63;6.38;;;;;;;;;;5013874;28;20527;-63
2023/02/12 03:30:15;;;;;;;13.68;6.43;;;;;;;;;;5022579;28;20173;-60
2023/02/12 03:32:56;;;;;;;12.77;6.35;;;;;;;;;;5021838;28;20482;-62
2023/02/12 03:35:32;;;;;;;12.90;6.32;;;;;;;;;;5014877;28;20597;-62
2023/02/12 03:38:08;;;;;;;13.38;6.63;;;;;;;;;;5014262;28;20170;-62
2023/02/12 03:40:40;;;;;;;16.13;6.45;;;;;;;;;;5014570;28;20218;-62
2023/02/12 03:43:08;;;;;;;11.77;5.25;;;;;;;;;;5014393;28;20194;-61
2023/02/12 03:45:44;;;;;;;9.95;4.28;;;;;;;;;;5014649;28;20257;-61
2023/02/12 03:48:19;;;;;;;12.02;5.10;;;;;;;;;;5014275;28;20194;-62
2023/02/12 03:50:45;;;;;;;9.40;4.63;;;;;;;;;;5014275;28;20168;-61
2023/02/12 03:53:11;;;;;;;8.07;4.63;;;;;;;;;;5013918;28;20250;-61
2023/02/12 03:55:40;;;;;;;9.30;5.07;;;;;;;;;;5014072;28;20171;-60
2023/02/12 03:58:08;;;;;;;9.48;4.68;;;;;;;;;;5014137;28;20235;-62
2023/02/12 04:00:36;;;;;;;12.55;5.43;;;;;;;;;;5014181;28;20503;-61
2023/02/12 04:03:03;;;;;;;7.93;4.10;;;;;;;;;;5013559;28;20605;-61
2023/02/12 04:05:29;;;;;;;10.98;5.28;;;;;;;;;;5013720;28;20166;-60
2023/02/12 04:07:56;;;;;;;12.15;5.53;;;;;;;;;;5013671;28;20194;-60
2023/02/12 04:10:27;;;;;;;10.00;4.85;;;;;;;;;;5013826;28;20170;-61
2023/02/12 04:13:11;;;;;;;7.25;4.60;;;;;;;;;;5013709;28;20272;-58
2023/02/12 04:15:46;;;;;;;11.68;4.97;;;;;;;;;;5014053;28;20155;-60
2023/02/12 04:18:19;;;;;;;9.30;4.97;;;;;;;;;;5014187;28;20162;-61
2023/02/12 04:20:51;;;;;;;8.15;4.47;;;;;;;;;;5015676;28;20158;-60
2023/02/12 04:23:20;;;;;;;10.75;4.90;;;;;;;;;;5015824;28;20566;-61
2023/02/12 04:26:02;;;;;;;7.78;4.50;;;;;;;;;;5016953;28;20220;-61
2023/02/12 04:28:36;;;;;;;10.32;5.22;;;;;;;;;;5018836;28;20224;-62
2023/02/12 04:31:08;;;;;;;18.25;5.43;;;;;;;;;;5018415;28;20237;-62
2023/02/12 04:33:38;;;;;;;9.27;4.97;;;;;;;;;;5015589;28;20232;-60
2023/02/12 04:36:16;;;;;;;13.68;5.38;;;;;;;;;;5017897;28;20615;-61
2023/02/12 04:38:51;;;;;;;10.57;4.32;;;;;;;;;;5016989;28;20192;-61
2023/02/12 04:41:17;;;;;;;9.38;4.63;;;;;;;;;;5016101;28;20178;-61
2023/02/12 04:43:43;;;;;;;10.70;4.63;;;;;;;;;;5015526;28;20158;-61
2023/02/12 04:46:09;;;;;;;10.15;5.25;;;;;;;;;;5015043;28;20257;-61
2023/02/12 04:48:37;;;;;;;9.52;5.10;;;;;;;;;;5015250;28;20193;-61
2023/02/12 04:51:03;;;;;;;13.88;5.30;;;;;;;;;;5014478;28;20223;-62
2023/02/12 04:53:29;;;;;;;10.98;4.82;;;;;;;;;;5013336;28;20564;-59
2023/02/12 04:55:55;;;;;;;11.52;5.00;;;;;;;;;;5013195;28;20197;-62
2023/02/12 04:58:21;;;;;;;9.45;4.47;;;;;;;;;;5013071;28;20170;-60
2023/02/12 05:00:47;;;;;;;10.18;4.05;;;;;;;;;;5012609;28;20503;-62
2023/02/12 05:03:13;;;;;;;8.63;4.43;;;;;;;;;;5012960;28;20178;-62
2023/02/12 05:05:38;;;;;;;10.00;4.32;;;;;;;;;;5013059;28;20608;-60
2023/02/12 05:08:04;;;;;;;11.20;5.20;;;;;;;;;;5013257;28;20194;-59
2023/02/12 05:10:30;;;;;;;9.15;4.20;;;;;;;;;;5012600;28;20177;-60
2023/02/12 05:12:57;;;;;;;8.02;3.72;;;;;;;;;;5013298;28;20243;-61
2023/02/12 05:15:23;;;;;;;10.68;3.85;;;;;;;;;;5012908;28;20170;-62
2023/02/12 05:17:49;;;;;;;9.77;4.15;;;;;;;;;;5012726;28;20182;-62
2023/02/12 05:20:15;;;;;;;9.30;3.85;;;;;;;;;;5012760;28;20651;-60
2023/02/12 05:22:41;;;;;;;10.35;3.70;;;;;;;;;;5013199;28;20174;-62
2023/02/12 05:25:07;;;;;;;9.40;3.13;;;;;;;;;;5012987;28;20562;-61
2023/02/12 05:27:33;;;;;;;9.10;3.42;;;;;;;;;;5013074;28;20197;-61
2023/02/12 05:29:59;;;;;;;11.70;3.10;;;;;;;;;;5013038;28;20235;-62
2023/02/12 05:32:25;;;;;;;8.80;3.50;;;;;;;;;;5013132;28;20174;-61
2023/02/12 05:34:51;;;;;;;8.52;3.00;;;;;;;;;;5013010;28;20177;-60
2023/02/12 05:37:16;;;;;;;8.82;2.90;;;;;;;;;;5013652;28;20256;-62
2023/02/12 05:39:42;;;;;;;9.95;3.08;;;;;;;;;;5017329;28;20174;-63
2023/02/12 05:42:08;;;;;;;8.85;3.30;;;;;;;;;;5016416;28;20174;-62
2023/02/12 05:44:34;;;;;;;8.27;2.90;;;;;;;;;;5016498;28;20166;-62
2023/02/12 05:47:00;;;;;;;7.25;2.80;;;;;;;;;;5016579;28;20219;-62
2023/02/12 05:49:26;;;;;;;10.18;3.20;;;;;;;;;;5016024;28;20221;-62
2023/02/12 05:51:52;;;;;;;7.43;3.30;;;;;;;;;;5016266;28;20177;-63
2023/02/12 05:54:18;;;;;;;9.00;2.95;;;;;;;;;;5016483;28;20166;-62
2023/02/12 05:56:46;;;;;;;9.45;3.45;;;;;;;;;;5016685;28;20253;-61
2023/02/12 05:59:13;;;;;;;7.28;2.88;;;;;;;;;;5016389;28;20178;-61
2023/02/12 06:01:41;;;;;;;10.43;2.55;;;;;;;;;;5015975;28;20588;-62
2023/02/12 06:04:08;;;;;;;8.75;2.83;;;;;;;;;;5015381;28;20170;-61
2023/02/12 06:06:34;;;;;;;7.13;2.65;;;;;;;;;;5015651;28;20523;-63
2023/02/12 06:09:00;;;;;;;6.45;2.17;;;;;;;;;;5016414;28;20258;-62
2023/02/12 06:11:27;;;;;;;8.15;2.38;;;;;;;;;;5015328;28;20177;-62
2023/02/12 06:13:52;;;;;;;7.78;2.42;;;;;;;;;;5015548;28;20171;-62
2023/02/12 06:16:25;;;;;;;7.47;1.92;;;;;;;;;;5015148;28;20189;-63
2023/02/12 06:18:54;;;;;;;11.18;2.65;;;;;;;;;;5026951;28;20261;-61
2023/02/12 06:21:21;;;;;;;7.25;1.90;;;;;;;;;;5030275;28;20521;-62
2023/02/12 06:23:47;;;;;;;6.93;2.67;;;;;;;;;;5022630;28;20179;-61
2023/02/12 06:26:13;;;;;;;5.93;2.10;;;;;;;;;;5015755;28;20257;-63
2023/02/12 06:28:40;;;;;;;5.82;2.05;;;;;;;;;;5015364;28;20190;-62
2023/02/12 06:31:15;;;;;;;5.47;2.20;;;;;;;;;;5015202;28;20181;-61
2023/02/12 06:33:41;;;;;;;5.97;2.13;;;;;;;;;;5015199;28;20570;-59
2023/02/12 06:36:07;;;;;;;8.88;2.00;;;;;;;;;;5014903;28;20235;-63
2023/02/12 06:38:34;;;;;;;6.10;2.08;;;;;;;;;;5015279;28;20174;-63
2023/02/12 06:41:03;;;;;;;5.93;2.10;;;;;;;;;;5015137;28;20265;-59
2023/02/12 06:43:29;;;;;;;7.82;2.35;;;;;;;;;;5014905;28;20185;-63
2023/02/12 06:45:55;;;;;;;6.28;2.38;;;;;;;;;;5014859;28;20170;-63
2023/02/12 06:48:21;;;;;;;8.43;2.33;;;;;;;;;;5014889;28;20714;-63
2023/02/12 06:50:47;;;;;;;2.92;1.60;;;;;;;;;;5014333;28;20184;-63
2023/02/12 06:53:13;;;;;;;6.10;2.25;;;;;;;;;;5015095;28;20166;-61
2023/02/12 06:55:39;;;;;;;5.28;1.70;;;;;;;;;;5014788;28;20190;-63
2023/02/12 06:58:05;;;;;;;9.25;1.77;;;;;;;;;;5014888;28;20174;-63
2023/02/12 07:00:30;;;;;;;6.30;2.13;;;;;;;;;;5015590;28;20238;-63
2023/02/12 07:02:57;;;;;;;7.18;1.70;;;;;;;;;;5014835;28;20181;-62
2023/02/12 07:05:23;;;;;;;7.25;1.95;;;;;;;;;;5014801;28;20166;-61
2023/02/12 07:07:49;;;;;;;6.10;2.30;;;;;;;;;;5014546;28;20201;-63
2023/02/12 07:10:16;;;;;;;4.00;2.00;;;;;;;;;;5014408;28;20163;-62
2023/02/12 07:12:42;;;;;;;6.90;2.47;;;;;;;;;;5014614;28;20265;-63
2023/02/12 07:15:08;;;;;;;4.93;2.38;;;;;;;;;;5014082;28;20214;-63
2023/02/12 07:17:34;;;;;;;7.55;2.50;;;;;;;;;;5014109;28;20178;-62
2023/02/12 07:20:00;;;;;;;7.38;2.22;;;;;;;;;;5014173;28;20639;-63
2023/02/12 07:22:26;;;;;;;6.85;2.00;;;;;;;;;;5014478;28;20194;-63
2023/02/12 07:24:52;;;;;;;5.35;1.88;;;;;;;;;;5014418;28;20589;-63
2023/02/12 07:27:18;;;;;;;6.55;2.30;;;;;;;;;;5014008;28;20652;-60
2023/02/12 07:29:44;;;;;;;5.78;2.05;;;;;;;;;;5014559;28;20258;-62
2023/02/12 07:32:10;;;;;;;4.88;2.10;;;;;;;;;;5014297;28;20162;-63
2023/02/12 07:34:36;;;;;;;5.88;2.05;;;;;;;;;;5014247;28;20601;-63
2023/02/12 07:37:02;;;;;;;5.70;1.95;;;;;;;;;;5014074;28;20167;-61
2023/02/12 07:39:28;;;;;;;6.13;1.80;;;;;;;;;;5014226;28;20199;-60
2023/02/12 07:41:55;;;;;;;8.45;1.90;;;;;;;;;;5014197;28;20608;-61
2023/02/12 07:44:21;;;;;;;3.78;1.50;;;;;;;;;;5014318;28;20171;-59
2023/02/12 07:46:48;;;;;;;4.18;1.70;;;;;;;;;;5014305;28;20261;-62
2023/02/12 07:49:18;;;;;;;4.60;1.60;;;;;;;;;;5013823;28;20202;-63
2023/02/12 07:51:45;;;;;;;4.47;1.50;;;;;;;;;;5013951;28;20192;-61
2023/02/12 07:54:12;;;;;;;3.95;1.60;;;;;;;;;;5014082;28;20174;-62
2023/02/12 07:56:38;;;;;;;5.93;1.63;;;;;;;;;;5013903;28;20174;-61
2023/02/12 07:59:06;;;;;;;3.83;1.80;;;;;;;;;;5013740;28;20200;-60
2023/02/12 08:01:33;;;;;;;5.07;1.70;;;;;;;;;;5013238;28;20608;-61
2023/02/12 08:04:00;;;;;;;6.40;2.03;;;;;;;;;;5014095;28;20189;-62
2023/02/12 08:06:27;;;;;;;4.75;2.00;;;;;;;;;;5014072;28;20223;-61
2023/02/12 08:08:54;;;;;;;4.32;1.95;;;;;;;;;;5014076;28;20198;-59
2023/02/12 08:11:20;;;;;;;5.57;1.95;;;;;;;;;;5014036;28;20178;-61
2023/02/12 08:13:46;;;;;;;5.65;2.08;;;;;;;;;;5013838;28;20599;-60
2023/02/12 08:16:16;;;;;;;4.57;1.77;;;;;;;;;;5014034;28;20162;-58
2023/02/12 08:18:43;;;;;;;5.60;2.10;;;;;;;;;;5013894;28;20181;-61
2023/02/12 08:21:19;;;;;;;5.18;1.88;;;;;;;;;;5013769;28;20182;-63
2023/02/12 08:23:45;;;;;;;5.95;2.33;;;;;;;;;;5013509;28;20270;-63
2023/02/12 08:26:13;;;;;;;7.82;2.22;;;;;;;;;;5013424;28;20491;-63
2023/02/12 08:28:40;;;;;;;6.07;2.40;;;;;;;;;;5013455;28;20284;-61
2023/02/12 08:31:09;;;;;;;6.38;2.67;;;;;;;;;;5013030;28;20158;-63
2023/02/12 08:33:35;;;;;;;7.22;2.38;;;;;;;;;;5013548;28;20220;-63
2023/02/12 08:36:02;;;;;;;7.68;2.33;;;;;;;;;;5013391;28;20175;-63
2023/02/12 08:38:28;;;;;;;9.27;2.63;;;;;;;;;;5013293;28;20170;-63
2023/02/12 08:40:54;;;;;;;6.18;2.33;;;;;;;;;;5013161;28;20261;-63
2023/02/12 08:43:20;;;;;;;6.18;2.70;;;;;;;;;;5013248;28;20170;-63
2023/02/12 08:45:46;;;;;;;6.78;2.40;;;;;;;;;;5012743;28;20262;-62
2023/02/12 08:48:12;;;;;;;8.77;2.58;;;;;;;;;;5012894;28;20213;-62
2023/02/12 08:50:38;;;;;;;8.50;2.67;;;;;;;;;;5013230;28;20170;-63
2023/02/12 08:53:07;;;;;;;6.55;2.55;;;;;;;;;;5013131;28;20509;-63
2023/02/12 08:55:33;;;;;;;10.50;2.83;;;;;;;;;;5013138;28;20166;-63
2023/02/12 08:58:00;;;;;;;8.95;2.78;;;;;;;;;;5013044;28;20669;-60
2023/02/12 09:00:26;;;;;;;6.10;2.83;;;;;;;;;;5013232;28;20178;-61
2023/02/12 09:02:51;;;;;;;7.38;2.78;;;;;;;;;;5015377;28;20609;-61
2023/02/12 09:05:17;;;;;;;9.15;2.50;;;;;;;;;;5021546;28;20608;-63
2023/02/12 09:07:43;;;;;;;7.30;2.63;;;;;;;;;;5016314;28;20189;-62
2023/02/12 09:10:09;;;;;;;5.10;2.22;;;;;;;;;;5013062;28;20162;-61
2023/02/12 09:12:35;;;;;;;8.05;2.40;;;;;;;;;;5012334;28;20219;-61
2023/02/12 09:15:02;;;;;;;9.18;2.70;;;;;;;;;;5013344;28;20170;-62
2023/02/12 09:17:29;;;;;;;6.75;2.30;;;;;;;;;;5012990;28;20174;-63
2023/02/12 09:19:56;;;;;;;7.13;2.08;;;;;;;;;;5012748;28;20202;-63
2023/02/12 09:22:22;;;;;;;7.28;2.30;;;;;;;;;;5012879;28;20202;-62
2023/02/12 09:24:48;;;;;;;3.65;1.92;;;;;;;;;;5012923;28;20193;-60
2023/02/12 09:27:14;;;;;;;6.45;2.20;;;;;;;;;;5012626;28;20179;-63
2023/02/12 09:29:40;;;;;;;7.25;2.50;;;;;;;;;;5012874;28;20174;-61
2023/02/12 09:32:06;;;;;;;8.00;2.90;;;;;;;;;;5012595;28;20180;-61
2023/02/12 09:34:35;;;;;;;8.95;2.55;;;;;;;;;;5012848;28;20177;-61
2023/02/12 09:37:01;;;;;;;7.22;2.22;;;;;;;;;;5012486;28;20613;-63
2023/02/12 09:39:29;;;;;;;5.63;2.10;;;;;;;;;;5012178;28;20204;-63
2023/02/12 09:42:03;;;;;;;8.18;1.98;;;;;;;;;;5012664;28;20170;-62
2023/02/12 09:44:29;;;;;;;7.88;2.40;;;;;;;;;;5012568;28;20168;-61
2023/02/12 09:47:14;;;;;;;9.70;2.38;;;;;;;;;;5012530;28;20253;-62
2023/02/12 09:49:49;;;;;;;4.88;1.58;;;;;;;;;;5012545;28;20185;-63
2023/02/12 09:52:24;;;;;;;4.53;1.83;;;;;;;;;;5012249;28;20176;-61
2023/02/12 09:54:50;;;;;;;7.82;2.40;;;;;;;;;;5012293;28;20252;-62
2023/02/12 09:57:23;;;;;;;3.38;2.05;;;;;;;;;;5012321;28;20174;-62
2023/02/12 10:00:01;;;;;;;5.05;1.98;;;;;;;;;;5012470;28;20159;-63
2023/02/12 10:02:27;;;;;;;3.70;1.88;;;;;;;;;;5011854;28;20193;-62
2023/02/12 10:04:54;;;;;;;3.40;1.73;;;;;;;;;;5012304;28;20202;-62
2023/02/12 10:07:31;;;;;;;5.28;2.00;;;;;;;;;;5012087;28;20226;-63
2023/02/12 10:10:06;;;;;;;5.00;1.40;;;;;;;;;;5011943;28;20162;-63
2023/02/12 10:12:41;;;;;;;5.38;1.88;;;;;;;;;;5011767;28;20173;-63
2023/02/12 10:15:15;;;;;;;6.35;1.58;;;;;;;;;;5011945;28;20154;-63
2023/02/12 10:17:44;;;;;;;5.97;1.70;;;;;;;;;;5012138;28;20527;-62
2023/02/12 10:20:28;;;;;;;5.97;1.92;;;;;;;;;;5012126;28;20470;-62
2023/02/12 10:23:13;;;;;;;4.13;2.08;;;;;;;;;;5011630;28;20511;-62
2023/02/12 10:25:50;;;;;;;5.57;2.22;;;;;;;;;;5015522;28;20184;-60
2023/02/12 10:28:26;;;;;;;5.43;2.10;;;;;;;;;;5015038;28;20307;-61
2023/02/12 10:30:54;;;;;;;6.18;2.50;;;;;;;;;;5015527;28;20170;-58
2023/02/12 10:33:26;;;;;;;5.70;2.50;;;;;;;;;;5015232;28;20315;-62
2023/02/12 10:36:12;;;;;;;7.35;3.00;;;;;;;;;;5015401;28;20165;-62
2023/02/12 10:38:41;;;;;;;7.05;2.70;;;;;;;;;;5055269;28;20184;-62
2023/02/12 10:41:10;;;;;;;5.97;2.83;;;;;;;;;;5015199;28;20171;-62
2023/02/12 10:43:36;;;;;;;7.07;2.83;;;;;;;;;;5015102;28;20185;-63
2023/02/12 10:46:02;;;;;;;6.07;3.03;;;;;;;;;;5015095;28;20163;-63
2023/02/12 10:48:48;;;;;;;6.32;2.80;;;;;;;;;;5014879;28;20233;-63
2023/02/12 10:51:23;;;;;;;6.10;2.83;;;;;;;;;;5014847;28;20216;-61
2023/02/12 10:53:49;;;;;;;9.63;2.90;;;;;;;;;;5015001;28;20577;-62
2023/02/12 10:56:18;;;;;;;8.30;2.90;;;;;;;;;;5014805;28;20158;-62
2023/02/12 10:58:50;;;;;;;6.50;3.20;;;;;;;;;;5014863;28;20171;-62
2023/02/12 11:01:26;;;;;;;7.03;2.53;;;;;;;;;;5014762;28;20177;-62
2023/02/12 11:03:53;;;;;;;5.85;2.70;;;;;;;;;;5014648;28;20262;-63
2023/02/12 11:06:20;;;;;;;6.32;2.90;;;;;;;;;;5014664;28;20526;-61
2023/02/12 11:08:46;;;;;;;5.78;2.95;;;;;;;;;;5014607;28;20202;-62
2023/02/12 11:11:14;;;;;;;6.97;3.10;;;;;;;;;;5014572;28;20166;-62
2023/02/12 11:13:42;;;;;;;7.35;3.20;;;;;;;;;;5014499;28;20162;-62
2023/02/12 11:16:08;;;;;;;9.10;3.90;;;;;;;;;;5014758;28;20170;-63
2023/02/12 11:18:36;;;;;;;9.77;3.55;;;;;;;;;;5014497;28;20167;-61
2023/02/12 11:21:06;;;;;;;6.75;3.28;;;;;;;;;;5015217;28;20247;-61
2023/02/12 11:23:37;;;;;;;7.40;3.00;;;;;;;;;;5015080;28;20171;-63
2023/02/12 11:26:03;;;;;;;6.20;3.28;;;;;;;;;;5015427;28;20155;-63
2023/02/12 11:28:30;;;;;;;6.97;3.17;;;;;;;;;;5015543;28;20198;-63
2023/02/12 11:31:01;;;;;;;8.20;3.17;;;;;;;;;;5015628;28;20264;-63
2023/02/12 11:33:27;;;;;;;6.47;3.00;;;;;;;;;;5015356;28;20177;-63
2023/02/12 11:36:13;;;;;;;6.82;2.85;;;;;;;;;;5014126;28;20600;-63
2023/02/12 11:38:47;;;;;;;6.25;3.22;;;;;;;;;;5015736;28;20173;-62
2023/02/12 11:41:21;;;;;;;6.35;3.00;;;;;;;;;;5015389;28;20163;-63
2023/02/12 11:43:47;;;;;;;6.20;2.75;;;;;;;;;;5015180;28;20185;-62
2023/02/12 11:46:19;;;;;;;8.18;2.88;;;;;;;;;;5017498;28;20189;-61
2023/02/12 11:48:46;;;;;;;7.43;2.88;;;;;;;;;;5016217;28;20186;-62
2023/02/12 11:51:18;;;;;;;6.53;2.33;;;;;;;;;;5014968;28;20170;-63
2023/02/12 11:53:46;;;;;;;4.10;2.50;;;;;;;;;;5015022;28;20577;-63
2023/02/12 11:56:13;;;;;;;8.68;2.55;;;;;;;;;;5015486;28;20256;-61
2023/02/12 11:58:40;;;;;;;7.80;2.70;;;;;;;;;;5015156;28;20546;-61
2023/02/12 12:01:12;;;;;;;7.65;2.50;;;;;;;;;;5014334;28;20693;-62
2023/02/12 12:03:50;;;;;;;5.63;2.28;;;;;;;;;;5014255;28;20269;-60
2023/02/12 12:06:35;;;;;;;7.57;2.90;;;;;;;;;;5014015;28;20231;-59
2023/02/12 12:09:13;;;;;;;6.53;2.80;;;;;;;;;;5013791;28;20198;-62
2023/02/12 12:11:43;;;;;;;5.97;2.65;;;;;;;;;;5013592;28;20606;-59
2023/02/12 12:14:28;;;;;;;7.75;2.65;;;;;;;;;;5013613;28;20600;-61
2023/02/12 12:19:56;;;;;;;7.88;2.45;;;;;;;;;;5013285;28;20227;-63
2023/02/12 12:22:41;;;;;;;9.57;2.72;;;;;;;;;;5013499;28;20155;-62
2023/02/12 12:25:10;;;;;;;4.25;2.00;;;;;;;;;;5013575;28;20180;-63
2023/02/12 12:30:32;;;;;;;4.88;1.88;;;;;;;;;;5013393;28;20176;-63
2023/02/12 12:33:01;;;;;;;5.30;1.80;;;;;;;;;;5013415;28;20171;-63
2023/02/12 12:35:33;;;;;;;3.63;1.83;;;;;;;;;;5013176;28;20175;-63
2023/02/12 12:38:07;;;;;;;4.50;1.75;;;;;;;;;;5013595;28;20569;-63
2023/02/12 12:40:36;;;;;;;5.90;1.70;;;;;;;;;;5013449;28;20169;-61
2023/02/12 12:43:03;;;;;;;9.02;2.20;;;;;;;;;;5013535;28;20178;-61
2023/02/12 12:45:39;;;;;;;4.15;1.75;;;;;;;;;;5013307;28;20178;-61
2023/02/12 12:48:05;;;;;;;7.50;2.15;;;;;;;;;;5013262;28;20308;-62
2023/02/12 12:50:39;;;;;;;5.88;1.80;;;;;;;;;;5013253;28;20177;-62
2023/02/12 12:53:11;;;;;;;4.25;1.80;;;;;;;;;;5013398;28;20154;-61
2023/02/12 12:55:40;;;;;;;6.05;2.00;;;;;;;;;;5012985;28;20178;-62
2023/02/12 12:58:19;;;;;;;3.38;1.77;;;;;;;;;;5013277;28;20174;-60
2023/02/12 13:01:02;;;;;;;6.25;2.17;;;;;;;;;;5012940;28;20166;-62
2023/02/12 13:03:36;;;;;;;8.75;2.30;;;;;;;;;;5013127;28;20170;-61
2023/02/12 13:06:07;;;;;;;6.43;2.35;;;;;;;;;;5013120;28;20242;-62
2023/02/12 13:08:39;;;;;;;4.43;2.40;;;;;;;;;;5012985;28;20265;-62
2023/02/12 13:11:18;;;;;;;7.63;3.13;;;;;;;;;;5012890;28;20162;-62
2023/02/12 13:13:46;;;;;;;4.38;2.03;;;;;;;;;;5012577;28;20664;-62
2023/02/12 13:16:19;;;;;;;5.97;2.83;;;;;;;;;;5012744;28;20256;-61
2023/02/12 13:18:48;;;;;;;8.98;2.88;;;;;;;;;;5012624;28;20174;-62
2023/02/12 13:21:17;;;;;;;7.05;2.90;;;;;;;;;;5012736;28;20185;-62
2023/02/12 13:23:43;;;;;;;7.78;2.80;;;;;;;;;;5012653;28;20162;-63
2023/02/12 13:26:17;;;;;;;6.20;3.15;;;;;;;;;;5012613;28;20249;-63
2023/02/12 13:28:46;;;;;;;8.57;2.70;;;;;;;;;;5012576;28;20207;-63
2023/02/12 13:31:14;;;;;;;7.70;3.47;;;;;;;;;;5012234;28;20167;-63
2023/02/12 13:33:44;;;;;;;5.57;2.90;;;;;;;;;;5012454;28;20181;-62
2023/02/12 13:36:12;;;;;;;7.90;2.97;;;;;;;;;;5012537;28;20166;-63
2023/02/12 13:38:41;;;;;;;6.78;3.15;;;;;;;;;;5012198;28;20181;-62
2023/02/12 13:41:11;;;;;;;9.65;3.30;;;;;;;;;;5012504;28;20174;-63
2023/02/12 13:43:53;;;;;;;7.38;2.97;;;;;;;;;;5012578;28;20170;-61
2023/02/12 13:46:43;;;;;;;9.20;3.05;;;;;;;;;;5012292;28;20585;-62
2023/02/12 13:49:14;;;;;;;7.97;2.85;;;;;;;;;;5049051;28;20656;-62
2023/02/12 13:51:48;;;;;;;6.63;2.63;;;;;;;;;;5012500;28;20165;-62
2023/02/12 13:54:25;;;;;;;8.23;2.78;;;;;;;;;;5012543;28;20545;-61
2023/02/12 13:56:56;;;;;;;7.32;2.97;;;;;;;;;;5012162;28;20197;-62
2023/02/12 13:59:34;;;;;;;7.57;2.90;;;;;;;;;;5013788;28;20190;-62
2023/02/12 14:02:25;;;;;;;6.78;2.60;;;;;;;;;;5015339;28;20178;-63
2023/02/12 14:05:00;;;;;;;11.30;3.33;;;;;;;;;;5015307;28;20615;-62
2023/02/12 14:07:44;;;;;;;6.85;2.95;;;;;;;;;;5015309;28;20704;-62
2023/02/12 14:10:27;;;;;;;8.90;3.25;;;;;;;;;;5015577;28;20158;-60
2023/02/12 14:12:55;;;;;;;8.20;2.97;;;;;;;;;;5015609;28;20189;-62
2023/02/12 14:15:24;;;;;;;9.05;3.50;;;;;;;;;;5015395;28;20166;-62
2023/02/12 14:17:53;;;;;;;6.32;3.13;;;;;;;;;;5015458;28;20235;-61
2023/02/12 14:20:19;;;;;;;8.85;3.03;;;;;;;;;;5015102;28;20250;-62
2023/02/12 14:22:48;;;;;;;7.18;2.80;;;;;;;;;;5015357;28;20179;-62
2023/02/12 14:25:14;;;;;;;7.82;3.05;;;;;;;;;;5014919;28;20686;-63
2023/02/12 14:27:40;;;;;;;9.68;3.58;;;;;;;;;;5014979;28;20207;-62
2023/02/12 14:30:09;;;;;;;6.35;2.97;;;;;;;;;;5025829;28;20167;-61
2023/02/12 14:32:44;;;;;;;8.25;3.35;;;;;;;;;;5029145;28;20185;-61
2023/02/12 14:35:31;;;;;;;9.88;4.22;;;;;;;;;;5026709;28;20169;-62
2023/02/12 14:37:59;;;;;;;8.73;4.10;;;;;;;;;;5017749;28;20585;-61
2023/02/12 14:40:41;;;;;;;9.02;4.13;;;;;;;;;;5015827;28;20186;-62
2023/02/12 14:43:26;;;;;;;8.98;4.43;;;;;;;;;;5015307;28;20186;-63
2023/02/12 14:45:52;;;;;;;8.75;4.10;;;;;;;;;;5014961;28;20498;-62
2023/02/12 14:48:36;;;;;;;8.02;3.90;;;;;;;;;;5014731;28;20537;-63
2023/02/12 14:51:03;;;;;;;7.18;3.60;;;;;;;;;;5014736;28;20185;-63
2023/02/12 14:53:31;;;;;;;8.80;3.60;;;;;;;;;;5014756;28;20611;-62
2023/02/12 14:55:58;;;;;;;12.48;4.75;;;;;;;;;;5014815;28;20162;-62
2023/02/12 14:58:25;;;;;;;7.18;3.65;;;;;;;;;;5015256;28;20170;-62
2023/02/12 15:00:53;;;;;;;7.80;3.83;;;;;;;;;;5014843;28;20171;-61
2023/02/12 15:03:23;;;;;;;9.23;3.83;;;;;;;;;;5014521;28;20742;-61